Thedford, Nebraska
Current Conditions -  °F | °C
As of 6:15 AM on Thursday 18 Dec 2014 (Local Time) from KTIF Reporting Station
Overcast Overcast  
Wind Chill: 19°   Ceiling: 800
Heat Index: 25°   Visibility: 10mi
Dew Point: 24°   Wind: 6mph
Humidity: 94%   Direction: 240°WSW
Pressure: 30.05"   Gusts: NA
Location:  41.98°N, 100.58°W
Report Text: KTIF 181215Z AUTO 24005KT 10SM OVC008 M04/M05 A3005 RMK AO2 T10371046
Loading
Personal Weather Stations






























Interactive Weather Map New forecast layout! Learn more

10-Day Weather Forecast

Advertisements
Track Severe Weather on mobile